createdAt,value
2023-03-17T00:04:30.908Z,5.80
2023-03-17T00:11:14.963Z,5.60
2023-03-17T00:17:58.153Z,5.20
2023-03-17T00:24:40.719Z,5.30
2023-03-17T00:31:26.059Z,5.40
2023-03-17T00:38:16.171Z,5.60
2023-03-17T00:44:59.550Z,5.70
2023-03-17T00:51:44.657Z,5.80
2023-03-17T00:58:30.447Z,5.80
2023-03-17T01:05:13.986Z,5.70
2023-03-17T01:11:56.722Z,5.60
2023-03-17T01:18:39.655Z,5.80
2023-03-17T01:25:23.121Z,6.00
2023-03-17T01:32:05.809Z,6.10
2023-03-17T01:38:48.460Z,6.10
2023-03-17T01:46:09.387Z,6.00
2023-03-17T01:52:52.578Z,6.10
2023-03-17T01:59:39.483Z,6.20
2023-03-17T02:06:22.180Z,6.20
2023-03-17T02:13:05.728Z,6.30
2023-03-17T02:19:48.422Z,6.40
2023-03-17T02:26:34.327Z,6.40
2023-03-17T02:33:18.865Z,6.00
2023-03-17T02:40:01.750Z,5.70
2023-03-17T02:46:44.249Z,5.30
2023-03-17T02:53:26.979Z,5.30
2023-03-17T03:00:10.443Z,5.70
2023-03-17T03:06:54.223Z,5.80
2023-03-17T03:13:37.729Z,6.10
2023-03-17T03:20:20.918Z,6.20
2023-03-17T03:27:03.284Z,6.20
2023-03-17T03:33:45.993Z,6.20
2023-03-17T03:40:28.834Z,6.20
2023-03-17T03:47:11.420Z,6.10
2023-03-17T03:53:53.680Z,6.00
2023-03-17T04:00:37.178Z,5.90
2023-03-17T04:07:21.252Z,5.60
2023-03-17T04:14:04.089Z,5.50
2023-03-17T04:20:46.796Z,5.50
2023-03-17T04:27:29.071Z,5.50
2023-03-17T04:34:16.506Z,5.50
2023-03-17T04:40:58.835Z,5.40
2023-03-17T04:47:41.996Z,5.40
2023-03-17T04:54:24.437Z,5.20
2023-03-17T05:01:07.431Z,5.20
2023-03-17T05:07:49.781Z,5.20
2023-03-17T05:14:32.067Z,5.10
2023-03-17T05:21:14.541Z,5.00
2023-03-17T05:27:56.855Z,5.10
2023-03-17T05:34:39.260Z,5.00
2023-03-17T05:41:21.769Z,5.00
2023-03-17T05:48:04.882Z,4.90
2023-03-17T05:54:48.928Z,4.70
2023-03-17T06:01:31.470Z,4.80
2023-03-17T06:08:13.910Z,5.00
2023-03-17T06:14:56.222Z,5.20
2023-03-17T06:21:38.561Z,5.60
2023-03-17T06:28:20.988Z,5.90
2023-03-17T06:35:05.228Z,5.80
2023-03-17T06:41:47.801Z,6.00
2023-03-17T06:48:30.060Z,6.90
2023-03-17T06:55:12.497Z,8.30
2023-03-17T07:01:54.911Z,8.80
2023-03-17T07:08:37.300Z,13.00
2023-03-17T07:15:20.761Z,14.10
2023-03-17T07:22:03.094Z,14.80
2023-03-17T07:28:45.539Z,15.80
2023-03-17T07:35:28.556Z,16.30
2023-03-17T07:42:15.304Z,15.80
2023-03-17T07:48:58.168Z,15.00
2023-03-17T07:55:41.330Z,15.10
2023-03-17T08:02:24.315Z,15.10
2023-03-17T08:09:06.834Z,16.20
2023-03-17T08:15:49.856Z,17.70
2023-03-17T08:22:32.225Z,20.60
2023-03-17T08:29:15.455Z,20.50
2023-03-17T08:35:57.805Z,21.00
2023-03-17T08:42:40.888Z,19.20
2023-03-17T08:49:23.485Z,18.30
2023-03-17T08:56:07.010Z,21.80
2023-03-17T09:02:49.690Z,23.60
2023-03-17T09:09:35.305Z,23.50
2023-03-17T09:16:18.260Z,23.40
2023-03-17T09:23:01.334Z,26.30
2023-03-17T09:29:43.879Z,26.00
2023-03-17T09:36:26.498Z,23.80
2023-03-17T09:43:47.559Z,23.90
2023-03-17T09:50:45.327Z,23.60
2023-03-17T09:57:35.742Z,23.00
2023-03-17T10:04:18.997Z,24.80
2023-03-17T10:11:16.152Z,24.10
2023-03-17T10:17:58.931Z,24.80
2023-03-17T10:24:47.115Z,23.70
2023-03-17T10:31:32.966Z,24.00
2023-03-17T10:38:23.319Z,23.10
2023-03-17T10:45:13.118Z,21.30
2023-03-17T10:51:55.737Z,20.90
2023-03-17T10:58:44.514Z,21.60
2023-03-17T11:05:29.195Z,21.40
2023-03-17T11:12:39.292Z,20.90
2023-03-17T11:19:31.496Z,20.60
2023-03-17T11:26:37.283Z,20.70
2023-03-17T11:33:28.547Z,20.80
2023-03-17T11:40:27.757Z,21.10
2023-03-17T11:47:34.522Z,20.90
2023-03-17T11:54:38.548Z,21.60
2023-03-17T12:01:32.442Z,21.60
2023-03-17T12:08:28.153Z,21.40
2023-03-17T12:15:18.904Z,21.60
2023-03-17T12:22:07.995Z,21.50
2023-03-17T12:28:58.473Z,21.70
2023-03-17T12:35:40.807Z,22.00
2023-03-17T12:42:40.098Z,22.50
2023-03-17T12:50:04.772Z,22.80
2023-03-17T12:56:49.135Z,22.80
2023-03-17T13:03:38.333Z,22.70
2023-03-17T13:10:48.470Z,22.90
2023-03-17T13:17:32.893Z,22.60
2023-03-17T13:24:18.531Z,22.70
2023-03-17T13:31:30.825Z,22.60
2023-03-17T13:38:46.774Z,22.60
2023-03-17T13:45:42.119Z,23.00
2023-03-17T13:52:30.480Z,23.10
2023-03-17T13:59:15.817Z,22.20
2023-03-17T14:06:03.216Z,21.90
2023-03-17T14:12:57.047Z,22.10
2023-03-17T14:19:41.628Z,21.80
2023-03-17T14:26:26.694Z,21.70
2023-03-17T14:33:11.990Z,21.80
2023-03-17T14:39:57.544Z,21.50
2023-03-17T14:46:41.118Z,21.50
2023-03-17T14:53:24.698Z,21.20
2023-03-17T15:00:34.011Z,21.40
2023-03-17T15:07:36.693Z,21.50
2023-03-17T15:14:27.766Z,21.60
2023-03-17T15:21:34.106Z,21.80
2023-03-17T15:28:18.961Z,21.60
2023-03-17T15:35:01.396Z,21.70
2023-03-17T15:41:43.780Z,21.70
2023-03-17T15:48:28.009Z,21.50
2023-03-17T15:55:21.317Z,21.40
2023-03-17T16:02:03.881Z,21.20
2023-03-17T16:08:46.508Z,20.90
2023-03-17T16:15:31.893Z,20.90
2023-03-17T16:22:43.778Z,20.50
2023-03-17T16:29:26.126Z,20.30
2023-03-17T16:36:14.801Z,19.90
2023-03-17T16:42:57.120Z,19.30
2023-03-17T16:49:39.445Z,19.30
2023-03-17T16:56:23.422Z,18.80
2023-03-17T17:03:05.935Z,18.10
2023-03-17T17:09:48.255Z,17.60
2023-03-17T17:16:33.586Z,17.80
2023-03-17T17:23:22.053Z,17.00
2023-03-17T17:30:07.212Z,16.60
2023-03-17T17:36:49.720Z,16.50
2023-03-17T17:43:32.498Z,16.40
2023-03-17T17:50:42.250Z,16.40
2023-03-17T17:57:25.399Z,16.30
2023-03-17T18:04:11.329Z,16.20
2023-03-17T18:10:55.710Z,16.10
2023-03-17T18:17:38.188Z,16.00
2023-03-17T18:24:20.708Z,15.90
2023-03-17T18:31:10.437Z,15.50
2023-03-17T18:37:53.603Z,15.50
2023-03-17T18:44:35.949Z,15.20
2023-03-17T18:51:18.645Z,14.90
2023-03-17T18:58:01.158Z,14.90
2023-03-17T19:04:49.912Z,14.50
2023-03-17T19:11:33.132Z,14.20
2023-03-17T19:18:16.205Z,14.00
2023-03-17T19:24:58.772Z,13.90
2023-03-17T19:31:43.754Z,13.80
2023-03-17T19:38:27.596Z,13.70
2023-03-17T19:45:10.578Z,13.70
2023-03-17T19:51:53.204Z,13.70
2023-03-17T19:58:35.923Z,13.30
2023-03-17T20:05:18.678Z,13.00
2023-03-17T20:12:01.966Z,13.10
2023-03-17T20:18:44.291Z,12.80
2023-03-17T20:25:27.050Z,12.40
2023-03-17T20:32:11.373Z,12.20
2023-03-17T20:38:54.840Z,12.10
2023-03-17T20:45:38.295Z,12.10
2023-03-17T20:52:22.289Z,12.20
2023-03-17T20:59:05.918Z,12.10
2023-03-17T21:05:48.244Z,12.10
2023-03-17T21:12:31.660Z,12.10
2023-03-17T21:19:15.338Z,12.10
2023-03-17T21:25:57.643Z,11.90
2023-03-17T21:32:41.672Z,11.90
2023-03-17T21:39:25.337Z,12.00
2023-03-17T21:46:08.423Z,11.90
2023-03-17T21:52:50.745Z,11.90
2023-03-17T21:59:35.599Z,12.00
2023-03-17T22:06:19.274Z,11.60
2023-03-17T22:13:01.675Z,11.30
2023-03-17T22:19:44.064Z,11.20
2023-03-17T22:26:27.773Z,11.40
2023-03-17T22:33:10.688Z,11.20
2023-03-17T22:39:53.044Z,11.20
2023-03-17T22:46:38.270Z,10.90
2023-03-17T22:53:20.754Z,10.70
2023-03-17T23:00:09.650Z,10.60
2023-03-17T23:06:52.844Z,10.40
2023-03-17T23:13:36.132Z,10.50
2023-03-17T23:20:19.053Z,10.30
2023-03-17T23:27:01.660Z,10.00
2023-03-17T23:33:44.166Z,9.90
2023-03-17T23:40:26.576Z,9.90
2023-03-17T23:47:09.636Z,10.00
2023-03-17T23:53:52.983Z,10.10
